createdAt,value
2023-04-10T00:01:10.843Z,11.55
2023-04-10T00:03:38.280Z,10.82
2023-04-10T00:06:05.741Z,10.93
2023-04-10T00:08:32.900Z,10.82
2023-04-10T00:11:00.000Z,11.07
2023-04-10T00:13:27.281Z,10.68
2023-04-10T00:15:54.414Z,10.85
2023-04-10T00:18:21.576Z,10.85
2023-04-10T00:20:48.746Z,11.25
2023-04-10T00:23:16.076Z,11.18
2023-04-10T00:25:43.230Z,11.13
2023-04-10T00:28:10.402Z,11.07
2023-04-10T00:30:37.536Z,11.02
2023-04-10T00:33:04.735Z,10.50
2023-04-10T00:35:32.446Z,10.98
2023-04-10T00:38:01.277Z,11.10
2023-04-10T00:40:30.300Z,11.00
2023-04-10T00:42:57.489Z,11.50
2023-04-10T00:45:24.815Z,11.93
2023-04-10T00:47:52.325Z,11.48
2023-04-10T00:50:20.495Z,11.48
2023-04-10T00:52:48.031Z,10.98
2023-04-10T00:55:15.823Z,10.88
2023-04-10T00:57:47.206Z,10.20
2023-04-10T01:00:15.454Z,10.65
2023-04-10T01:02:42.853Z,11.38
2023-04-10T01:05:11.501Z,10.88
2023-04-10T01:07:51.884Z,11.45
2023-04-10T01:10:48.358Z,12.15
2023-04-10T01:13:21.493Z,11.10
2023-04-10T01:15:50.384Z,10.30
2023-04-10T01:18:23.266Z,10.48
2023-04-10T01:20:50.414Z,10.10
2023-04-10T01:23:17.513Z,10.98
2023-04-10T01:25:44.638Z,10.38
2023-04-10T01:28:17.151Z,9.85
2023-04-10T01:30:44.932Z,10.25
2023-04-10T01:33:13.939Z,11.18
2023-04-10T01:35:42.194Z,9.80
2023-04-10T01:38:10.543Z,10.90
2023-04-10T01:40:39.449Z,10.38
2023-04-10T01:43:07.305Z,11.50
2023-04-10T01:45:34.831Z,10.95
2023-04-10T01:48:02.070Z,10.70
2023-04-10T01:50:29.772Z,10.02
2023-04-10T01:52:57.661Z,10.20
2023-04-10T01:55:25.467Z,9.88
2023-04-10T01:57:53.502Z,9.82
2023-04-10T02:00:20.759Z,10.48
2023-04-10T02:02:48.082Z,10.07
2023-04-10T02:05:16.491Z,10.55
2023-04-10T02:08:03.134Z,10.70
2023-04-10T02:10:46.148Z,9.98
2023-04-10T02:13:15.707Z,10.07
2023-04-10T02:15:44.568Z,10.18
2023-04-10T02:18:12.109Z,10.68
2023-04-10T02:20:39.299Z,10.90
2023-04-10T02:23:06.767Z,10.68
2023-04-10T02:25:34.294Z,10.63
2023-04-10T02:28:05.372Z,10.32
2023-04-10T02:30:33.293Z,9.63
2023-04-10T02:33:00.885Z,10.40
2023-04-10T02:35:29.266Z,10.05
2023-04-10T02:37:56.421Z,10.35
2023-04-10T02:40:24.549Z,10.45
2023-04-10T02:42:51.716Z,11.57
2023-04-10T02:45:18.939Z,11.60
2023-04-10T02:47:46.243Z,10.73
2023-04-10T02:50:13.396Z,10.80
2023-04-10T02:52:41.862Z,11.45
2023-04-10T02:55:09.208Z,10.60
2023-04-10T02:57:36.337Z,10.68
2023-04-10T03:00:04.704Z,9.90
2023-04-10T03:02:32.755Z,10.18
2023-04-10T03:05:01.808Z,9.80
2023-04-10T03:07:28.963Z,10.70
2023-04-10T03:09:56.171Z,10.35
2023-04-10T03:12:23.434Z,10.35
2023-04-10T03:14:50.571Z,10.32
2023-04-10T03:17:17.806Z,10.32
2023-04-10T03:19:44.922Z,10.27
2023-04-10T03:22:12.111Z,10.93
2023-04-10T03:24:40.055Z,10.95
2023-04-10T03:27:07.198Z,10.18
2023-04-10T03:29:34.295Z,11.13
2023-04-10T03:32:01.448Z,10.75
2023-04-10T03:34:28.673Z,11.20
2023-04-10T03:36:55.971Z,12.32
2023-04-10T03:39:23.817Z,12.27
2023-04-10T03:41:50.947Z,11.25
2023-04-10T03:44:18.699Z,11.30
2023-04-10T03:46:46.029Z,10.77
2023-04-10T03:49:13.146Z,11.35
2023-04-10T03:51:40.441Z,11.30
2023-04-10T03:54:07.558Z,10.68
2023-04-10T03:56:34.728Z,11.40
2023-04-10T03:59:01.835Z,11.20
2023-04-10T04:01:28.968Z,11.02
2023-04-10T04:03:56.484Z,10.48
2023-04-10T04:06:23.816Z,10.48
2023-04-10T04:08:51.000Z,10.88
2023-04-10T04:11:18.185Z,11.20
2023-04-10T04:13:45.328Z,11.48
2023-04-10T04:16:12.513Z,11.23
2023-04-10T04:18:39.752Z,10.93
2023-04-10T04:21:08.444Z,11.82
2023-04-10T04:23:35.981Z,11.45
2023-04-10T04:26:03.095Z,10.52
2023-04-10T04:28:30.504Z,10.00
2023-04-10T04:30:57.688Z,11.43
2023-04-10T04:33:24.860Z,10.55
2023-04-10T04:35:51.989Z,11.57
2023-04-10T04:38:20.267Z,11.40
2023-04-10T04:40:47.450Z,10.90
2023-04-10T04:43:14.579Z,10.48
2023-04-10T04:45:41.738Z,11.07
2023-04-10T04:48:08.880Z,10.45
2023-04-10T04:50:36.441Z,10.85
2023-04-10T04:53:04.284Z,10.07
2023-04-10T04:55:32.069Z,10.73
2023-04-10T04:57:59.185Z,9.75
2023-04-10T05:00:26.344Z,9.63
2023-04-10T05:02:53.576Z,11.27
2023-04-10T05:05:20.793Z,8.85
2023-04-10T05:07:48.029Z,10.48
2023-04-10T05:10:16.090Z,8.98
2023-04-10T05:12:43.352Z,9.38
2023-04-10T05:15:10.777Z,9.52
2023-04-10T05:17:37.887Z,9.77
2023-04-10T05:20:05.274Z,9.43
2023-04-10T05:22:32.482Z,8.95
2023-04-10T05:24:59.891Z,9.15
2023-04-10T05:27:27.292Z,9.57
2023-04-10T05:29:54.373Z,9.15
2023-04-10T05:32:21.500Z,9.73
2023-04-10T05:34:48.727Z,9.10
2023-04-10T05:37:15.902Z,9.25
2023-04-10T05:39:43.076Z,8.73
2023-04-10T05:42:10.180Z,9.05
2023-04-10T05:44:37.286Z,8.32
2023-04-10T05:47:04.423Z,8.20
2023-04-10T05:49:31.540Z,9.20
2023-04-10T05:51:58.688Z,9.48
2023-04-10T05:54:25.926Z,7.97
2023-04-10T05:56:53.099Z,8.48
2023-04-10T05:59:20.192Z,8.63
2023-04-10T06:01:47.503Z,7.25
2023-04-10T06:04:15.101Z,9.48
2023-04-10T06:06:42.410Z,8.60
2023-04-10T06:09:11.714Z,9.07
2023-04-10T06:11:39.034Z,8.35
2023-04-10T06:14:06.152Z,7.82
2023-04-10T06:16:33.451Z,8.18
2023-04-10T06:19:00.688Z,7.13
2023-04-10T06:21:27.804Z,8.05
2023-04-10T06:23:55.173Z,7.93
2023-04-10T06:26:22.519Z,7.53
2023-04-10T06:28:49.880Z,6.97
2023-04-10T06:31:19.072Z,6.30
2023-04-10T06:33:46.313Z,7.25
2023-04-10T06:36:13.446Z,6.55
2023-04-10T06:38:40.706Z,6.13
2023-04-10T06:41:07.899Z,7.38
2023-04-10T06:43:35.779Z,7.15
2023-04-10T06:46:06.040Z,6.13
2023-04-10T06:48:33.703Z,6.70
2023-04-10T06:51:00.911Z,7.47
2023-04-10T06:53:28.382Z,6.53
2023-04-10T06:55:55.542Z,7.03
2023-04-10T06:58:22.706Z,6.85
2023-04-10T07:00:49.959Z,6.28
2023-04-10T07:03:17.478Z,7.13
2023-04-10T07:05:44.662Z,6.60
2023-04-10T07:08:11.848Z,6.55
2023-04-10T07:10:38.974Z,6.13
2023-04-10T07:13:06.114Z,6.20
2023-04-10T07:15:33.216Z,6.03
2023-04-10T07:18:00.379Z,5.93
2023-04-10T07:20:28.280Z,6.28
2023-04-10T07:22:55.456Z,6.07
2023-04-10T07:25:22.650Z,6.07
2023-04-10T07:27:49.766Z,5.63
2023-04-10T07:30:16.949Z,5.97
2023-04-10T07:32:45.178Z,5.30
2023-04-10T07:35:12.390Z,5.80
2023-04-10T07:37:39.892Z,5.60
2023-04-10T07:40:08.342Z,4.53
2023-04-10T07:42:35.569Z,5.35
2023-04-10T07:45:02.728Z,5.68
2023-04-10T07:47:29.855Z,5.13
2023-04-10T07:49:57.042Z,5.03
2023-04-10T07:52:24.301Z,5.32
2023-04-10T07:54:51.654Z,4.85
2023-04-10T07:57:18.847Z,5.25
2023-04-10T07:59:46.037Z,5.13
2023-04-10T08:02:13.306Z,4.95
2023-04-10T08:04:40.566Z,5.30
2023-04-10T08:07:07.760Z,4.68
2023-04-10T08:09:34.898Z,4.88
2023-04-10T08:12:02.057Z,4.72
2023-04-10T08:14:29.244Z,4.80
2023-04-10T08:16:56.406Z,4.63
2023-04-10T08:19:23.563Z,4.80
2023-04-10T08:21:50.703Z,4.90
2023-04-10T08:24:20.183Z,4.18
2023-04-10T08:26:47.338Z,4.45
2023-04-10T08:29:14.611Z,5.05
2023-04-10T08:31:42.186Z,4.93
2023-04-10T08:34:09.392Z,4.25
2023-04-10T08:36:36.562Z,4.20
2023-04-10T08:39:03.750Z,4.35
2023-04-10T08:41:30.903Z,4.00
2023-04-10T08:43:58.448Z,3.88
2023-04-10T08:46:26.469Z,2.97
2023-04-10T08:49:02.903Z,4.22
2023-04-10T08:51:34.804Z,4.20
2023-04-10T08:54:06.739Z,3.53
2023-04-10T08:56:34.419Z,3.92
2023-04-10T08:59:04.292Z,3.83
2023-04-10T09:01:31.736Z,3.78
2023-04-10T09:03:59.774Z,3.60
2023-04-10T09:06:27.413Z,3.47
2023-04-10T09:08:54.615Z,3.78
2023-04-10T09:11:21.841Z,3.25
2023-04-10T09:13:48.929Z,3.38
2023-04-10T09:16:16.377Z,3.65
2023-04-10T09:18:44.535Z,3.00
2023-04-10T09:21:12.480Z,3.38
2023-04-10T09:23:39.733Z,3.22
2023-04-10T09:26:27.771Z,2.95
2023-04-10T09:28:58.542Z,2.85
2023-04-10T09:31:30.595Z,3.13
2023-04-10T09:34:16.806Z,3.40
2023-04-10T09:36:45.212Z,3.00
2023-04-10T09:39:12.973Z,2.95
2023-04-10T09:41:49.781Z,2.40
2023-04-10T09:44:18.812Z,3.65
2023-04-10T09:46:46.199Z,2.90
2023-04-10T09:49:13.491Z,2.88
2023-04-10T09:51:40.629Z,2.72
2023-04-10T09:54:07.783Z,3.85
2023-04-10T09:56:37.266Z,3.03
2023-04-10T09:59:04.899Z,3.28
2023-04-10T10:01:34.826Z,3.25
2023-04-10T10:04:04.204Z,3.67
2023-04-10T10:06:32.508Z,4.07
2023-04-10T10:09:03.717Z,3.00
2023-04-10T10:11:34.147Z,3.00
2023-04-10T10:14:03.318Z,4.70
2023-04-10T10:16:36.457Z,3.65
2023-04-10T10:19:06.880Z,3.03
2023-04-10T10:21:34.204Z,2.55
2023-04-10T10:24:02.055Z,3.83
2023-04-10T10:26:31.858Z,2.92
2023-04-10T10:28:59.838Z,3.50
2023-04-10T10:31:32.545Z,3.15
2023-04-10T10:36:27.785Z,3.65
2023-04-10T10:39:02.408Z,3.42
2023-04-10T10:41:32.432Z,3.33
2023-04-10T10:44:09.466Z,4.00
2023-04-10T10:46:41.590Z,5.25
2023-04-10T10:49:08.646Z,4.47
2023-04-10T10:51:46.581Z,5.05
2023-04-10T10:54:47.143Z,4.13
2023-04-10T10:57:39.751Z,4.03
2023-04-10T11:00:07.333Z,3.85
2023-04-10T11:02:35.074Z,4.22
2023-04-10T11:05:02.313Z,3.10
2023-04-10T11:07:49.391Z,3.25
2023-04-10T11:10:16.566Z,3.17
2023-04-10T11:13:17.115Z,2.97
2023-04-10T11:15:44.277Z,3.20
2023-04-10T11:18:12.173Z,3.20
2023-04-10T11:20:58.475Z,2.90
2023-04-10T11:23:26.572Z,3.42
2023-04-10T11:25:54.657Z,3.83
2023-04-10T11:28:34.060Z,3.38
2023-04-10T11:31:20.796Z,3.40
2023-04-10T11:33:49.532Z,3.70
2023-04-10T11:36:18.002Z,3.85
2023-04-10T11:39:02.402Z,3.60
2023-04-10T11:41:36.726Z,3.30
2023-04-10T11:44:07.564Z,3.40
2023-04-10T11:46:38.636Z,3.83
2023-04-10T11:49:07.066Z,3.45
2023-04-10T11:51:34.411Z,3.30
2023-04-10T11:54:10.782Z,4.13
2023-04-10T11:56:39.429Z,3.25
2023-04-10T11:59:11.096Z,3.70
2023-04-10T12:01:41.123Z,3.20
2023-04-10T12:04:16.890Z,1.88
2023-04-10T12:06:45.456Z,2.60
2023-04-10T12:09:17.308Z,2.30
2023-04-10T12:11:51.921Z,3.13
2023-04-10T12:14:19.697Z,2.80
2023-04-10T12:16:47.108Z,1.58
2023-04-10T12:19:14.662Z,1.70
2023-04-10T12:21:45.616Z,1.00
2023-04-10T12:24:13.110Z,1.30
2023-04-10T12:26:47.690Z,1.67
2023-04-10T12:29:14.847Z,1.52
2023-04-10T12:31:42.143Z,1.55
2023-04-10T12:34:11.386Z,1.65
2023-04-10T12:36:38.713Z,1.40
2023-04-10T12:39:06.216Z,1.00
2023-04-10T12:41:34.512Z,1.25
2023-04-10T12:44:11.719Z,1.60
2023-04-10T12:46:39.094Z,1.27
2023-04-10T12:49:13.380Z,1.52
2023-04-10T12:51:47.904Z,1.50
2023-04-10T12:54:35.471Z,1.48
2023-04-10T12:57:04.084Z,1.58
2023-04-10T12:59:31.680Z,1.58
2023-04-10T13:01:58.944Z,1.60
2023-04-10T13:04:26.300Z,1.60
2023-04-10T13:06:53.720Z,1.60
2023-04-10T13:09:21.819Z,2.40
2023-04-10T13:11:50.987Z,2.38
2023-04-10T13:14:18.852Z,2.30
2023-04-10T13:16:46.188Z,2.10
2023-04-10T13:19:13.425Z,2.00
2023-04-10T13:21:40.611Z,1.77
2023-04-10T13:24:07.788Z,1.65
2023-04-10T13:26:34.924Z,2.20
2023-04-10T13:29:02.012Z,2.22
2023-04-10T13:31:29.189Z,2.13
2023-04-10T13:33:56.430Z,2.15
2023-04-10T13:36:23.670Z,1.90
2023-04-10T13:38:50.937Z,1.90
2023-04-10T13:41:18.236Z,2.10
2023-04-10T13:43:45.360Z,2.03
2023-04-10T13:46:12.530Z,2.30
2023-04-10T13:48:41.386Z,2.00
2023-04-10T13:51:08.855Z,2.17
2023-04-10T13:53:36.255Z,2.13
2023-04-10T13:56:03.431Z,2.22
2023-04-10T13:58:32.252Z,1.60
2023-04-10T14:00:59.520Z,1.73
2023-04-10T14:03:26.952Z,2.10
2023-04-10T14:05:54.633Z,1.98
2023-04-10T14:08:21.816Z,2.03
2023-04-10T14:10:52.106Z,2.10
2023-04-10T14:13:19.416Z,1.98
2023-04-10T14:15:46.761Z,2.35
2023-04-10T14:18:17.513Z,1.90
2023-04-10T14:20:44.843Z,2.00
2023-04-10T14:23:18.326Z,2.00
2023-04-10T14:25:46.130Z,1.98
2023-04-10T14:28:19.512Z,2.10
2023-04-10T14:30:50.835Z,2.28
2023-04-10T14:33:19.733Z,2.70
2023-04-10T14:35:47.619Z,1.80
2023-04-10T14:38:15.733Z,1.65
2023-04-10T14:40:43.666Z,1.88
2023-04-10T14:43:10.880Z,1.65
2023-04-10T14:45:38.030Z,2.47
2023-04-10T14:48:05.241Z,2.15
2023-04-10T14:50:33.145Z,2.08
2023-04-10T14:53:00.725Z,2.00
2023-04-10T14:55:29.604Z,1.90
2023-04-10T14:57:58.586Z,1.73
2023-04-10T15:00:26.471Z,2.28
2023-04-10T15:02:54.031Z,1.90
2023-04-10T15:05:23.032Z,2.10
2023-04-10T15:07:50.116Z,1.88
2023-04-10T15:10:17.285Z,2.00
2023-04-10T15:12:44.455Z,1.80
2023-04-10T15:15:11.587Z,2.15
2023-04-10T15:17:38.767Z,1.98
2023-04-10T15:20:06.480Z,1.80
2023-04-10T15:22:35.590Z,2.03
2023-04-10T15:25:02.942Z,1.90
2023-04-10T15:27:30.619Z,1.98
2023-04-10T15:29:57.765Z,1.70
2023-04-10T15:32:24.989Z,1.90
2023-04-10T15:34:52.217Z,1.90
2023-04-10T15:37:19.428Z,1.77
2023-04-10T15:39:46.625Z,1.80
2023-04-10T15:42:15.872Z,1.60
2023-04-10T15:44:43.004Z,1.90
2023-04-10T15:47:10.158Z,1.73
2023-04-10T15:49:38.660Z,1.80
2023-04-10T15:52:06.739Z,1.92
2023-04-10T15:54:34.663Z,1.60
2023-04-10T15:57:02.347Z,1.58
2023-04-10T15:59:29.621Z,1.60
2023-04-10T16:01:57.042Z,1.65
2023-04-10T16:04:24.547Z,1.58
2023-04-10T16:06:51.856Z,1.80
2023-04-10T16:11:50.849Z,1.85
2023-04-10T16:14:18.963Z,1.90
2023-04-10T16:16:46.421Z,1.52
2023-04-10T16:19:13.614Z,2.17
2023-04-10T16:21:40.821Z,4.43
2023-04-10T16:24:08.118Z,3.47
2023-04-10T16:26:35.219Z,1.63
2023-04-10T16:29:02.378Z,1.80
2023-04-10T16:31:29.566Z,1.90
2023-04-10T16:33:56.837Z,1.75
2023-04-10T16:36:24.091Z,1.70
2023-04-10T16:38:51.264Z,1.70
2023-04-10T16:41:20.428Z,1.63
2023-04-10T16:43:47.747Z,1.48
2023-04-10T16:46:15.076Z,1.77
2023-04-10T16:48:42.455Z,1.80
2023-04-10T16:51:10.349Z,2.97
2023-04-10T16:53:37.530Z,3.22
2023-04-10T16:56:05.463Z,3.40
2023-04-10T16:58:33.940Z,3.25
2023-04-10T17:01:01.125Z,3.03
2023-04-10T17:03:28.360Z,2.05
2023-04-10T17:05:55.484Z,2.40
2023-04-10T17:08:22.644Z,2.35
2023-04-10T17:10:49.835Z,2.97
2023-04-10T17:13:19.211Z,3.53
2023-04-10T17:15:47.409Z,4.30
2023-04-10T17:18:15.169Z,3.63
2023-04-10T17:20:42.413Z,3.20
2023-04-10T17:23:09.564Z,4.15
2023-04-10T17:25:39.648Z,4.47
2023-04-10T17:28:07.382Z,2.97
2023-04-10T17:30:34.660Z,2.90
2023-04-10T17:33:01.872Z,2.22
2023-04-10T17:35:29.058Z,2.10
2023-04-10T17:37:57.328Z,2.38
2023-04-10T17:40:25.092Z,3.00
2023-04-10T17:42:52.304Z,2.63
2023-04-10T17:45:19.463Z,2.47
2023-04-10T17:47:46.680Z,2.20
2023-04-10T17:50:13.847Z,2.22
2023-04-10T17:52:41.073Z,2.05
2023-04-10T17:55:08.395Z,2.58
2023-04-10T17:57:35.537Z,2.15
2023-04-10T18:00:03.098Z,2.10
2023-04-10T18:02:30.268Z,2.05
2023-04-10T18:04:57.478Z,1.98
2023-04-10T18:07:24.590Z,1.98
2023-04-10T18:09:51.735Z,2.28
2023-04-10T18:12:18.892Z,1.80
2023-04-10T18:14:47.995Z,1.70
2023-04-10T18:17:15.233Z,1.80
2023-04-10T18:19:42.352Z,1.70
2023-04-10T18:22:09.546Z,1.85
2023-04-10T18:24:36.705Z,1.73
2023-04-10T18:27:03.993Z,1.92
2023-04-10T18:29:31.719Z,2.05
2023-04-10T18:31:58.862Z,1.85
2023-04-10T18:34:26.621Z,1.90
2023-04-10T18:36:55.515Z,1.80
2023-04-10T18:39:22.613Z,1.70
2023-04-10T18:41:49.732Z,2.00
2023-04-10T18:44:16.810Z,2.03
2023-04-10T18:46:53.824Z,1.70
2023-04-10T18:49:24.851Z,1.52
2023-04-10T18:51:51.980Z,1.85
2023-04-10T18:54:19.117Z,1.52
2023-04-10T18:56:46.278Z,1.63
2023-04-10T18:59:13.387Z,2.40
2023-04-10T19:01:40.710Z,2.58
2023-04-10T19:04:08.078Z,2.42
2023-04-10T19:06:37.888Z,2.30
2023-04-10T19:09:04.997Z,3.28
2023-04-10T19:11:33.089Z,3.10
2023-04-10T19:14:00.192Z,2.80
2023-04-10T19:16:27.436Z,2.28
2023-04-10T19:18:55.369Z,3.03
2023-04-10T19:21:22.813Z,3.00
2023-04-10T19:23:49.907Z,3.30
2023-04-10T19:26:19.513Z,2.70
2023-04-10T19:28:46.858Z,2.45
2023-04-10T19:31:14.070Z,2.40
2023-04-10T19:33:41.428Z,2.60
2023-04-10T19:36:08.910Z,2.28
2023-04-10T19:38:36.053Z,2.38
2023-04-10T19:41:03.141Z,2.28
2023-04-10T19:43:30.309Z,2.17
2023-04-10T19:45:59.809Z,2.00
2023-04-10T19:48:27.713Z,1.70
2023-04-10T19:50:54.847Z,1.90
2023-04-10T19:53:22.075Z,1.92
2023-04-10T19:55:49.283Z,1.90
2023-04-10T19:58:30.450Z,1.77
2023-04-10T20:01:06.617Z,1.77
2023-04-10T20:03:33.927Z,1.85
2023-04-10T20:06:02.449Z,1.67
2023-04-10T20:08:29.904Z,1.90
2023-04-10T20:10:58.322Z,1.70
2023-04-10T20:13:25.849Z,2.03
2023-04-10T20:15:53.025Z,1.70
2023-04-10T20:18:20.209Z,1.80
2023-04-10T20:20:47.397Z,1.73
2023-04-10T20:23:14.543Z,2.03
2023-04-10T20:25:41.755Z,2.00
2023-04-10T20:28:09.250Z,1.55
2023-04-10T20:30:39.464Z,2.00
2023-04-10T20:33:06.574Z,1.75
2023-04-10T20:35:33.720Z,1.60
2023-04-10T20:38:00.911Z,1.77
2023-04-10T20:40:28.057Z,1.75
2023-04-10T20:42:55.248Z,1.90
2023-04-10T20:45:22.461Z,1.50
2023-04-10T20:47:49.679Z,1.90
2023-04-10T20:50:17.031Z,2.38
2023-04-10T20:52:44.181Z,2.00
2023-04-10T20:55:11.379Z,2.05
2023-04-10T20:57:38.610Z,2.05
2023-04-10T21:00:06.136Z,3.25
2023-04-10T21:02:33.578Z,2.90
2023-04-10T21:05:00.900Z,2.92
2023-04-10T21:07:28.112Z,2.60
2023-04-10T21:09:55.472Z,2.33
2023-04-10T21:12:23.418Z,1.63
2023-04-10T21:14:50.726Z,1.77
2023-04-10T21:17:18.712Z,1.88
2023-04-10T21:19:45.909Z,1.80
2023-04-10T21:22:13.191Z,1.70
2023-04-10T21:24:40.452Z,1.83
2023-04-10T21:27:08.064Z,1.77
2023-04-10T21:29:35.424Z,1.70
2023-04-10T21:32:02.550Z,1.70
2023-04-10T21:34:30.409Z,1.70
2023-04-10T21:36:57.551Z,2.00
2023-04-10T21:39:24.756Z,1.67
2023-04-10T21:41:51.914Z,2.00
2023-04-10T21:44:19.091Z,1.85
2023-04-10T21:46:46.329Z,2.17
2023-04-10T21:49:13.725Z,1.85
2023-04-10T21:51:41.089Z,1.98
2023-04-10T21:54:08.329Z,1.90
2023-04-10T21:56:36.776Z,1.80
2023-04-10T21:59:03.957Z,1.92
2023-04-10T22:01:31.112Z,2.10
2023-04-10T22:03:58.393Z,1.90
2023-04-10T22:06:26.613Z,1.95
2023-04-10T22:08:53.934Z,1.90
2023-04-10T22:11:21.186Z,1.75
2023-04-10T22:13:48.343Z,1.95
2023-04-10T22:16:15.416Z,1.80
2023-04-10T22:18:42.575Z,1.92
2023-04-10T22:21:09.754Z,1.80
2023-04-10T22:23:36.900Z,2.10
2023-04-10T22:26:04.052Z,1.60
2023-04-10T22:28:31.237Z,1.90
2023-04-10T22:30:58.400Z,1.90
2023-04-10T22:33:25.538Z,1.88
2023-04-10T22:35:53.664Z,1.67
2023-04-10T22:38:20.895Z,1.60
2023-04-10T22:40:48.015Z,1.80
2023-04-10T22:43:15.151Z,1.88
2023-04-10T22:45:42.665Z,1.63
2023-04-10T22:48:09.771Z,1.80
2023-04-10T22:50:37.121Z,1.88
2023-04-10T22:53:04.200Z,1.73
2023-04-10T22:55:31.360Z,1.85
2023-04-10T22:57:58.473Z,1.98
2023-04-10T23:00:25.738Z,1.70
2023-04-10T23:02:52.953Z,1.83
2023-04-10T23:05:20.387Z,1.77
2023-04-10T23:07:47.541Z,2.03
2023-04-10T23:10:14.674Z,2.25
2023-04-10T23:12:41.842Z,2.03
2023-04-10T23:15:09.316Z,1.77
2023-04-10T23:17:36.527Z,2.00
2023-04-10T23:20:03.724Z,1.90
2023-04-10T23:22:31.050Z,1.98
2023-04-10T23:24:58.493Z,1.90
2023-04-10T23:27:25.639Z,1.83
2023-04-10T23:29:52.752Z,2.00
2023-04-10T23:32:19.877Z,1.83
2023-04-10T23:34:46.944Z,2.00
2023-04-10T23:37:14.387Z,1.80
2023-04-10T23:39:41.541Z,1.80
2023-04-10T23:42:08.821Z,1.55
2023-04-10T23:44:35.939Z,1.98
2023-04-10T23:47:03.307Z,1.98
2023-04-10T23:49:30.594Z,1.70
2023-04-10T23:51:57.734Z,1.50
2023-04-10T23:54:24.921Z,1.60
2023-04-10T23:56:52.110Z,1.55
2023-04-10T23:59:19.270Z,1.40
